createdAt,value
2022-10-15T00:01:26.178Z,17.20
2022-10-15T00:03:53.703Z,17.20
2022-10-15T00:06:21.659Z,17.30
2022-10-15T00:08:49.169Z,17.40
2022-10-15T00:11:19.995Z,17.40
2022-10-15T00:13:48.661Z,17.30
2022-10-15T00:16:19.127Z,17.20
2022-10-15T00:18:48.107Z,17.10
2022-10-15T00:21:18.081Z,17.10
2022-10-15T00:23:46.321Z,17.00
2022-10-15T00:26:17.313Z,16.90
2022-10-15T00:28:46.880Z,16.90
2022-10-15T00:31:17.428Z,16.80
2022-10-15T00:33:50.392Z,16.70
2022-10-15T00:36:26.708Z,16.70
2022-10-15T00:38:54.753Z,16.70
2022-10-15T00:41:30.660Z,16.70
2022-10-15T00:44:00.757Z,16.60
2022-10-15T00:46:33.517Z,16.70
2022-10-15T00:49:25.127Z,16.60
2022-10-15T00:52:01.437Z,16.50
2022-10-15T00:54:34.184Z,16.50
2022-10-15T00:57:01.871Z,16.60
2022-10-15T00:59:31.382Z,16.50
2022-10-15T01:02:00.704Z,16.50
2022-10-15T01:04:29.786Z,16.40
2022-10-15T01:06:57.162Z,16.40
2022-10-15T01:09:24.990Z,16.50
2022-10-15T01:11:54.365Z,16.30
2022-10-15T01:14:47.675Z,16.30
2022-10-15T01:17:29.942Z,16.40
2022-10-15T01:20:03.248Z,16.40
2022-10-15T01:22:36.474Z,16.40
2022-10-15T01:25:29.570Z,16.40
2022-10-15T01:28:10.034Z,16.40
2022-10-15T01:30:41.741Z,16.40
2022-10-15T01:33:29.315Z,16.50
2022-10-15T01:36:33.795Z,16.50
2022-10-15T01:39:15.582Z,16.50
2022-10-15T01:41:46.859Z,16.40
2022-10-15T01:44:22.293Z,16.40
2022-10-15T01:47:21.588Z,16.30
2022-10-15T01:49:52.767Z,16.30
2022-10-15T01:52:27.900Z,16.30
2022-10-15T01:54:55.970Z,16.40
2022-10-15T01:57:26.951Z,16.40
2022-10-15T01:59:54.809Z,16.40
2022-10-15T02:02:24.778Z,16.40
2022-10-15T02:04:52.353Z,16.30
2022-10-15T02:07:42.839Z,16.20
2022-10-15T02:10:25.119Z,16.30
2022-10-15T02:13:02.475Z,16.30
2022-10-15T02:15:44.307Z,16.30
2022-10-15T02:18:36.158Z,16.30
2022-10-15T02:21:37.151Z,16.30
2022-10-15T02:24:42.300Z,16.30
2022-10-15T02:27:12.506Z,16.30
2022-10-15T02:29:42.543Z,16.30
2022-10-15T02:32:12.073Z,16.30
2022-10-15T02:34:40.925Z,16.40
2022-10-15T02:37:09.321Z,16.40
2022-10-15T02:39:36.727Z,16.40
2022-10-15T02:42:04.616Z,16.40
2022-10-15T02:44:33.097Z,16.50
2022-10-15T02:47:01.934Z,16.40
2022-10-15T02:49:29.272Z,16.40
2022-10-15T02:51:56.729Z,16.40
2022-10-15T02:54:24.012Z,16.40
2022-10-15T02:56:51.344Z,16.40
2022-10-15T02:59:20.893Z,16.40
2022-10-15T03:01:50.263Z,16.40
2022-10-15T03:04:17.869Z,16.30
2022-10-15T03:06:45.409Z,16.30
2022-10-15T03:09:14.300Z,16.30
2022-10-15T03:11:41.781Z,16.30
2022-10-15T03:14:09.163Z,16.30
2022-10-15T03:16:36.523Z,16.20
2022-10-15T03:19:04.043Z,16.20
2022-10-15T03:21:31.676Z,16.30
2022-10-15T03:24:06.841Z,16.30
2022-10-15T03:26:34.433Z,16.20
2022-10-15T03:29:01.752Z,16.20
2022-10-15T03:31:40.948Z,16.20
2022-10-15T03:34:08.618Z,16.20
2022-10-15T03:36:36.065Z,16.30
2022-10-15T03:39:08.328Z,16.30
2022-10-15T03:41:36.310Z,16.20
2022-10-15T03:44:05.627Z,16.20
2022-10-15T03:46:33.759Z,16.10
2022-10-15T03:49:02.029Z,16.10
2022-10-15T03:51:31.658Z,16.10
2022-10-15T03:54:05.799Z,16.00
2022-10-15T03:56:39.375Z,16.00
2022-10-15T03:59:21.386Z,16.00
2022-10-15T04:01:56.593Z,16.10
2022-10-15T04:04:24.095Z,16.10
2022-10-15T04:06:51.455Z,16.00
2022-10-15T04:09:20.034Z,16.00
2022-10-15T04:11:47.512Z,16.00
2022-10-15T04:14:15.118Z,16.00
2022-10-15T04:16:43.763Z,16.00
2022-10-15T04:19:21.009Z,16.00
2022-10-15T04:21:59.198Z,16.00
2022-10-15T04:24:31.974Z,16.10
2022-10-15T04:26:59.297Z,16.00
2022-10-15T04:29:26.760Z,15.90
2022-10-15T04:31:54.881Z,16.00
2022-10-15T04:34:22.408Z,16.10
2022-10-15T04:36:50.346Z,16.00
2022-10-15T04:39:22.238Z,16.00
2022-10-15T04:41:49.452Z,15.80
2022-10-15T04:44:26.842Z,15.90
2022-10-15T04:46:57.544Z,15.90
2022-10-15T04:49:45.573Z,15.80
2022-10-15T04:52:29.027Z,15.80
2022-10-15T04:54:58.857Z,15.70
2022-10-15T04:57:27.250Z,15.80
2022-10-15T04:59:57.665Z,15.70
2022-10-15T05:02:28.367Z,15.60
2022-10-15T05:05:09.101Z,15.60
2022-10-15T05:07:45.722Z,15.60
2022-10-15T05:10:13.294Z,15.70
2022-10-15T05:15:13.744Z,15.80
2022-10-15T05:17:41.259Z,15.60
2022-10-15T05:20:10.027Z,15.60
2022-10-15T05:22:37.375Z,15.80
2022-10-15T05:25:05.070Z,15.70
2022-10-15T05:27:34.265Z,15.70
2022-10-15T05:30:04.827Z,15.60
2022-10-15T05:32:40.992Z,15.60
2022-10-15T05:35:12.055Z,15.60
2022-10-15T05:37:59.430Z,15.70
2022-10-15T05:40:26.804Z,15.70
2022-10-15T05:43:10.621Z,15.60
2022-10-15T05:45:37.867Z,15.60
2022-10-15T05:48:07.774Z,15.60
2022-10-15T05:50:36.232Z,15.60
2022-10-15T05:53:07.142Z,15.50
2022-10-15T05:55:48.498Z,15.60
2022-10-15T05:58:15.851Z,15.70
2022-10-15T06:00:43.344Z,15.60
2022-10-15T06:03:14.850Z,15.70
2022-10-15T06:05:42.332Z,15.80
2022-10-15T06:08:09.557Z,15.80
2022-10-15T06:10:37.926Z,15.70
2022-10-15T06:13:06.074Z,15.80
2022-10-15T06:15:34.188Z,15.80
2022-10-15T06:18:02.245Z,15.80
2022-10-15T06:20:29.629Z,15.90
2022-10-15T06:23:00.835Z,15.90
2022-10-15T06:25:28.868Z,16.00
2022-10-15T06:27:56.403Z,16.00
2022-10-15T06:30:28.027Z,16.00
2022-10-15T06:32:55.511Z,16.00
2022-10-15T06:35:23.805Z,16.20
2022-10-15T06:37:51.515Z,16.30
2022-10-15T06:40:19.074Z,16.50
2022-10-15T06:42:46.407Z,16.60
2022-10-15T06:45:15.890Z,16.80
2022-10-15T06:47:45.428Z,17.00
2022-10-15T06:50:12.949Z,17.00
2022-10-15T06:52:40.469Z,17.10
2022-10-15T06:55:08.111Z,17.20
2022-10-15T06:57:35.418Z,17.40
2022-10-15T07:00:03.615Z,17.60
2022-10-15T07:02:30.905Z,17.60
2022-10-15T07:04:58.528Z,17.60
2022-10-15T07:07:25.902Z,17.70
2022-10-15T07:09:55.233Z,17.90
2022-10-15T07:12:22.991Z,18.20
2022-10-15T07:14:50.555Z,18.20
2022-10-15T07:17:17.856Z,18.40
2022-10-15T07:19:45.808Z,18.70
2022-10-15T07:22:13.144Z,19.00
2022-10-15T07:24:40.535Z,19.40
2022-10-15T07:27:18.456Z,19.00
2022-10-15T07:29:46.809Z,18.70
2022-10-15T07:32:14.403Z,18.60
2022-10-15T07:34:41.762Z,18.70
2022-10-15T07:37:09.147Z,18.60
2022-10-15T07:39:39.117Z,18.60
2022-10-15T07:42:09.042Z,18.50
2022-10-15T07:44:36.423Z,18.90
2022-10-15T07:47:07.393Z,19.20
2022-10-15T07:49:34.833Z,19.60
2022-10-15T07:52:02.188Z,19.70
2022-10-15T07:54:32.614Z,20.20
2022-10-15T07:57:00.101Z,20.20
2022-10-15T07:59:27.469Z,20.20
2022-10-15T08:01:54.899Z,20.30
2022-10-15T08:04:22.199Z,20.10
2022-10-15T08:06:50.069Z,19.70
2022-10-15T08:09:17.837Z,19.80
2022-10-15T08:11:45.333Z,20.10
2022-10-15T08:14:12.850Z,20.70
2022-10-15T08:16:40.188Z,21.30
2022-10-15T08:19:07.474Z,20.80
2022-10-15T08:21:34.838Z,20.50
2022-10-15T08:24:02.222Z,20.40
2022-10-15T08:26:36.187Z,20.60
2022-10-15T08:29:04.129Z,20.30
2022-10-15T08:31:32.015Z,20.20
2022-10-15T08:34:03.284Z,20.10
2022-10-15T08:36:30.750Z,19.90
2022-10-15T08:38:58.555Z,19.80
2022-10-15T08:41:45.473Z,20.00
2022-10-15T08:44:54.090Z,19.80
2022-10-15T08:47:42.521Z,19.70
2022-10-15T08:50:19.044Z,19.60
2022-10-15T08:52:49.349Z,20.30
2022-10-15T08:55:19.585Z,20.60
2022-10-15T08:57:51.959Z,20.70
2022-10-15T09:00:40.668Z,20.20
2022-10-15T09:03:19.137Z,20.10
2022-10-15T09:06:25.830Z,20.10
2022-10-15T09:09:25.551Z,20.00
2022-10-15T09:12:13.622Z,20.00
2022-10-15T09:14:44.344Z,19.80
2022-10-15T09:17:21.964Z,19.60
2022-10-15T09:19:52.753Z,19.70
2022-10-15T09:22:30.636Z,19.90
2022-10-15T09:24:58.449Z,19.80
2022-10-15T09:27:35.627Z,20.00
2022-10-15T09:30:02.851Z,20.00
2022-10-15T09:33:01.143Z,19.90
2022-10-15T09:35:38.999Z,20.00
2022-10-15T09:38:14.196Z,20.00
2022-10-15T09:40:55.781Z,20.00
2022-10-15T09:43:31.736Z,20.00
2022-10-15T09:46:00.329Z,20.10
2022-10-15T09:48:35.925Z,20.30
2022-10-15T09:51:18.494Z,20.70
2022-10-15T09:54:00.026Z,20.90
2022-10-15T09:56:36.016Z,21.00
2022-10-15T09:59:05.976Z,21.10
2022-10-15T10:01:36.357Z,22.10
2022-10-15T10:04:34.136Z,23.60
2022-10-15T10:07:04.697Z,23.40
2022-10-15T10:09:48.832Z,22.70
2022-10-15T10:12:23.030Z,22.10
2022-10-15T10:14:55.253Z,22.10
2022-10-15T10:17:27.393Z,21.90
2022-10-15T10:20:10.153Z,21.40
2022-10-15T10:22:54.141Z,21.30
2022-10-15T10:25:32.209Z,21.50
2022-10-15T10:28:27.778Z,21.10
2022-10-15T10:30:58.445Z,21.40
2022-10-15T10:33:29.852Z,21.50
2022-10-15T10:35:58.590Z,21.70
2022-10-15T10:38:30.159Z,21.70
2022-10-15T10:41:07.631Z,21.30
2022-10-15T10:43:39.228Z,21.40
2022-10-15T10:46:14.620Z,21.50
2022-10-15T10:48:51.139Z,21.60
2022-10-15T10:51:26.921Z,21.70
2022-10-15T10:54:06.317Z,21.70
2022-10-15T10:56:42.498Z,21.80
2022-10-15T10:59:15.833Z,22.40
2022-10-15T11:01:43.671Z,22.80
2022-10-15T11:04:39.072Z,22.90
2022-10-15T11:07:25.176Z,22.70
2022-10-15T11:10:12.217Z,22.70
2022-10-15T11:13:17.537Z,22.50
2022-10-15T11:15:58.121Z,22.40
2022-10-15T11:18:28.169Z,22.40
2022-10-15T11:21:00.777Z,22.40
2022-10-15T11:23:48.494Z,22.70
2022-10-15T11:26:29.719Z,22.50
2022-10-15T11:29:29.699Z,22.40
2022-10-15T11:32:14.621Z,22.10
2022-10-15T11:35:01.168Z,22.00
2022-10-15T11:37:43.466Z,22.10
2022-10-15T11:40:42.851Z,21.90
2022-10-15T11:43:56.098Z,21.70
2022-10-15T11:46:44.154Z,21.70
2022-10-15T11:49:24.852Z,21.80
2022-10-15T11:52:37.667Z,21.80
2022-10-15T11:55:05.120Z,21.60
2022-10-15T11:57:35.361Z,21.60
2022-10-15T12:00:32.126Z,21.50
2022-10-15T12:03:27.015Z,21.40
2022-10-15T12:06:03.792Z,21.40
2022-10-15T12:08:36.326Z,21.20
2022-10-15T12:11:12.822Z,21.20
2022-10-15T12:13:56.834Z,21.40
2022-10-15T12:16:30.337Z,21.40
2022-10-15T12:19:22.406Z,21.50
2022-10-15T12:21:56.774Z,21.50
2022-10-15T12:24:54.178Z,21.70
2022-10-15T12:27:30.275Z,21.90
2022-10-15T12:30:00.415Z,21.80
2022-10-15T12:32:30.242Z,21.70
2022-10-15T12:34:59.748Z,21.80
2022-10-15T12:37:29.980Z,21.90
2022-10-15T12:40:07.242Z,22.00
2022-10-15T12:42:40.178Z,22.10
2022-10-15T12:45:22.699Z,22.10
2022-10-15T12:47:56.272Z,22.10
2022-10-15T12:50:29.971Z,21.90
2022-10-15T12:53:02.574Z,22.00
2022-10-15T12:55:31.704Z,22.00
2022-10-15T12:58:04.954Z,22.00
2022-10-15T13:00:34.011Z,21.90
2022-10-15T13:03:23.422Z,21.80
2022-10-15T13:05:54.014Z,21.80
2022-10-15T13:08:34.564Z,21.60
2022-10-15T13:11:01.939Z,21.90
2022-10-15T13:13:33.829Z,21.90
2022-10-15T13:16:02.333Z,21.90
2022-10-15T13:18:31.220Z,21.90
2022-10-15T13:20:59.878Z,22.00
2022-10-15T13:23:33.216Z,22.00
2022-10-15T13:26:23.130Z,22.00
2022-10-15T13:28:52.692Z,21.70
2022-10-15T13:31:29.116Z,21.60
2022-10-15T13:34:04.968Z,21.50
2022-10-15T13:36:34.794Z,21.50
2022-10-15T13:39:08.748Z,21.50
2022-10-15T13:41:42.149Z,21.50
2022-10-15T13:44:24.186Z,21.40
2022-10-15T13:46:51.442Z,21.40
2022-10-15T13:49:20.431Z,21.40
2022-10-15T13:51:51.770Z,21.50
2022-10-15T13:54:25.474Z,21.50
2022-10-15T13:57:02.531Z,21.50
2022-10-15T13:59:31.380Z,21.60
2022-10-15T14:02:04.238Z,21.60
2022-10-15T14:04:33.150Z,21.60
2022-10-15T14:07:24.271Z,21.60
2022-10-15T14:09:51.947Z,21.90
2022-10-15T14:12:19.306Z,21.80
2022-10-15T14:14:48.198Z,21.80
2022-10-15T14:17:26.704Z,21.80
2022-10-15T14:20:22.094Z,21.80
2022-10-15T14:22:49.205Z,21.80
2022-10-15T14:25:23.353Z,21.60
2022-10-15T14:27:51.070Z,21.70
2022-10-15T14:30:30.663Z,21.70
2022-10-15T14:32:58.411Z,21.60
2022-10-15T14:35:33.852Z,21.60
2022-10-15T14:38:15.439Z,21.60
2022-10-15T14:41:06.290Z,21.60
2022-10-15T14:43:37.925Z,21.70
2022-10-15T14:46:08.483Z,21.60
2022-10-15T14:48:38.732Z,21.70
2022-10-15T14:51:12.899Z,21.80
2022-10-15T14:53:46.864Z,21.80
2022-10-15T14:56:21.562Z,21.90
2022-10-15T14:58:54.184Z,21.90
2022-10-15T15:01:21.752Z,21.80
2022-10-15T15:03:51.843Z,21.90
2022-10-15T15:06:19.786Z,21.80
2022-10-15T15:08:47.373Z,21.80
2022-10-15T15:11:22.235Z,21.80
2022-10-15T15:13:50.001Z,21.80
2022-10-15T15:16:18.544Z,21.70
2022-10-15T15:18:48.286Z,21.70
2022-10-15T15:21:20.041Z,21.70
2022-10-15T15:23:48.294Z,21.70
2022-10-15T15:26:15.946Z,21.50
2022-10-15T15:28:43.277Z,21.40
2022-10-15T15:31:16.729Z,21.40
2022-10-15T15:33:44.282Z,21.30
2022-10-15T15:36:19.169Z,21.20
2022-10-15T15:38:50.030Z,21.20
2022-10-15T15:41:20.539Z,21.10
2022-10-15T15:43:49.017Z,21.10
2022-10-15T15:46:17.223Z,21.00
2022-10-15T15:48:44.850Z,21.00
2022-10-15T15:51:32.114Z,21.00
2022-10-15T15:53:59.756Z,21.00
2022-10-15T15:56:27.209Z,20.90
2022-10-15T15:58:54.463Z,20.80
2022-10-15T16:01:21.891Z,20.70
2022-10-15T16:03:49.345Z,20.70
2022-10-15T16:06:16.732Z,20.60
2022-10-15T16:08:44.056Z,20.60
2022-10-15T16:11:11.490Z,20.50
2022-10-15T16:13:40.890Z,20.40
2022-10-15T16:16:08.586Z,20.40
2022-10-15T16:18:37.309Z,20.30
2022-10-15T16:21:04.950Z,20.30
2022-10-15T16:23:32.351Z,20.20
2022-10-15T16:25:59.694Z,20.20
2022-10-15T16:28:27.184Z,20.10
2022-10-15T16:30:54.453Z,20.10
2022-10-15T16:33:21.810Z,20.00
2022-10-15T16:35:53.560Z,20.00
2022-10-15T16:38:20.913Z,19.90
2022-10-15T16:40:48.233Z,19.90
2022-10-15T16:43:15.591Z,19.80
2022-10-15T16:45:42.888Z,19.80
2022-10-15T16:48:10.301Z,19.80
2022-10-15T16:50:37.714Z,19.80
2022-10-15T16:53:05.098Z,19.80
2022-10-15T16:55:32.434Z,19.80
2022-10-15T16:57:59.787Z,19.80
2022-10-15T17:00:27.193Z,19.80
2022-10-15T17:02:55.133Z,19.80
2022-10-15T17:05:22.473Z,19.70
2022-10-15T17:07:49.857Z,19.60
2022-10-15T17:10:17.348Z,19.60
2022-10-15T17:12:44.687Z,19.50
2022-10-15T17:15:12.289Z,19.50
2022-10-15T17:17:40.032Z,19.40
2022-10-15T17:20:09.125Z,19.30
2022-10-15T17:22:37.550Z,19.20
2022-10-15T17:25:05.990Z,19.20
2022-10-15T17:27:35.710Z,19.20
2022-10-15T17:30:03.212Z,19.10
2022-10-15T17:32:30.609Z,19.10
2022-10-15T17:35:01.327Z,19.00
2022-10-15T17:37:31.005Z,19.00
2022-10-15T17:39:58.730Z,19.00
2022-10-15T17:42:26.471Z,18.90
2022-10-15T17:44:54.160Z,18.90
2022-10-15T17:47:21.479Z,18.90
2022-10-15T17:49:48.893Z,18.80
2022-10-15T17:52:16.495Z,18.80
2022-10-15T17:54:45.122Z,18.80
2022-10-15T17:57:12.818Z,18.80
2022-10-15T17:59:40.370Z,18.70
2022-10-15T18:02:10.239Z,18.70
2022-10-15T18:04:39.846Z,18.70
2022-10-15T18:07:08.092Z,18.70
2022-10-15T18:09:36.079Z,18.70
2022-10-15T18:12:03.510Z,18.70
2022-10-15T18:14:34.207Z,18.70
2022-10-15T18:17:01.757Z,18.70
2022-10-15T18:19:29.229Z,18.70
2022-10-15T18:21:56.680Z,18.80
2022-10-15T18:24:24.465Z,18.80
2022-10-15T18:26:52.577Z,18.80
2022-10-15T18:29:20.707Z,18.70
2022-10-15T18:31:50.279Z,18.70
2022-10-15T18:34:21.585Z,18.60
2022-10-15T18:36:48.898Z,18.70
2022-10-15T18:39:16.751Z,18.70
2022-10-15T18:44:20.729Z,18.70
2022-10-15T18:46:48.128Z,18.70
2022-10-15T18:49:17.888Z,18.70
2022-10-15T18:51:46.586Z,18.60
2022-10-15T18:54:14.227Z,18.60
2022-10-15T18:56:41.715Z,18.50
2022-10-15T18:59:09.058Z,18.40
2022-10-15T19:01:39.133Z,18.40
2022-10-15T19:04:09.595Z,18.40
2022-10-15T19:06:40.808Z,18.40
2022-10-15T19:09:11.881Z,18.40
2022-10-15T19:11:40.850Z,18.40
2022-10-15T19:14:08.582Z,18.30
2022-10-15T19:16:36.318Z,18.40
2022-10-15T19:19:11.069Z,18.30
2022-10-15T19:21:38.560Z,18.30
2022-10-15T19:24:06.077Z,18.20
2022-10-15T19:26:33.839Z,18.20
2022-10-15T19:29:02.300Z,18.20
2022-10-15T19:31:32.849Z,18.10
2022-10-15T19:34:00.335Z,18.10
2022-10-15T19:36:36.929Z,18.00
2022-10-15T19:39:07.484Z,18.10
2022-10-15T19:41:39.247Z,18.00
2022-10-15T19:44:09.623Z,18.00
2022-10-15T19:46:38.171Z,18.00
2022-10-15T19:49:06.949Z,18.00
2022-10-15T19:51:35.153Z,18.00
2022-10-15T19:54:02.825Z,18.00
2022-10-15T19:56:32.944Z,18.00
2022-10-15T19:59:03.050Z,17.90
2022-10-15T20:01:31.044Z,17.80
2022-10-15T20:04:05.862Z,17.80
2022-10-15T20:06:38.193Z,17.80
2022-10-15T20:09:06.576Z,17.80
2022-10-15T20:11:34.299Z,17.80
2022-10-15T20:14:02.353Z,17.80
2022-10-15T20:16:32.839Z,17.70
2022-10-15T20:19:05.454Z,17.70
2022-10-15T20:21:33.286Z,17.50
2022-10-15T20:24:04.396Z,17.50
2022-10-15T20:26:32.860Z,17.50
2022-10-15T20:29:00.316Z,17.60
2022-10-15T20:31:32.257Z,17.50
2022-10-15T20:34:00.848Z,17.60
2022-10-15T20:36:28.451Z,17.60
2022-10-15T20:38:57.519Z,17.50
2022-10-15T20:41:25.191Z,17.40
2022-10-15T20:43:57.509Z,17.40
2022-10-15T20:46:33.998Z,17.40
2022-10-15T20:49:09.194Z,17.40
2022-10-15T20:51:39.787Z,17.40
2022-10-15T20:54:07.506Z,17.40
2022-10-15T20:56:34.972Z,17.40
2022-10-15T20:59:03.920Z,17.20
2022-10-15T21:01:32.406Z,17.10
2022-10-15T21:04:00.857Z,17.10
2022-10-15T21:06:28.235Z,17.20
2022-10-15T21:08:55.953Z,17.30
2022-10-15T21:11:23.926Z,17.20
2022-10-15T21:13:51.290Z,17.30
2022-10-15T21:16:18.726Z,17.30
2022-10-15T21:18:46.083Z,17.40
2022-10-15T21:21:14.804Z,17.50
2022-10-15T21:23:42.722Z,17.50
2022-10-15T21:26:16.334Z,17.30
2022-10-15T21:28:45.283Z,17.40
2022-10-15T21:31:16.578Z,17.40
2022-10-15T21:33:44.964Z,17.40
2022-10-15T21:36:21.584Z,17.40
2022-10-15T21:38:57.424Z,17.40
2022-10-15T21:41:26.504Z,17.40
2022-10-15T21:43:53.909Z,17.40
2022-10-15T21:46:21.198Z,17.40
2022-10-15T21:48:49.106Z,17.50
2022-10-15T21:51:23.745Z,17.50
2022-10-15T21:53:51.516Z,17.50
2022-10-15T21:56:19.012Z,17.50
2022-10-15T21:58:46.455Z,17.40
2022-10-15T22:01:19.080Z,17.40
2022-10-15T22:03:49.133Z,17.40
2022-10-15T22:06:17.737Z,17.40
2022-10-15T22:08:45.876Z,17.40
2022-10-15T22:11:19.989Z,17.40
2022-10-15T22:13:51.033Z,17.40
2022-10-15T22:16:19.617Z,17.50
2022-10-15T22:18:47.565Z,17.30
2022-10-15T22:21:23.880Z,17.30
2022-10-15T22:24:00.287Z,17.20
2022-10-15T22:26:31.109Z,17.10
2022-10-15T22:29:01.214Z,17.10
2022-10-15T22:31:29.292Z,17.20
2022-10-15T22:33:58.498Z,17.20
2022-10-15T22:36:28.623Z,17.20
2022-10-15T22:38:58.747Z,17.20
2022-10-15T22:41:28.537Z,17.20
2022-10-15T22:43:55.870Z,17.30
2022-10-15T22:46:23.223Z,17.40
2022-10-15T22:48:50.737Z,17.40
2022-10-15T22:51:18.045Z,17.20
2022-10-15T22:53:45.431Z,17.10
2022-10-15T22:56:18.961Z,17.20
2022-10-15T22:58:46.950Z,17.10
2022-10-15T23:01:20.070Z,17.00
2022-10-15T23:03:50.430Z,17.10
2022-10-15T23:06:19.702Z,17.00
2022-10-15T23:08:47.867Z,17.00
2022-10-15T23:11:21.725Z,17.00
2022-10-15T23:13:53.482Z,16.90
2022-10-15T23:16:25.167Z,16.90
2022-10-15T23:18:55.503Z,16.90
2022-10-15T23:21:35.489Z,16.90
2022-10-15T23:24:04.576Z,16.90
2022-10-15T23:26:32.029Z,16.80
2022-10-15T23:29:00.899Z,16.80
2022-10-15T23:31:30.996Z,16.80
2022-10-15T23:33:59.219Z,16.80
2022-10-15T23:36:28.836Z,16.80
2022-10-15T23:38:59.309Z,16.70
2022-10-15T23:41:27.892Z,16.70
2022-10-15T23:43:55.709Z,17.00
2022-10-15T23:46:23.996Z,16.80
2022-10-15T23:48:51.632Z,16.70
2022-10-15T23:51:30.282Z,16.70
2022-10-15T23:54:00.182Z,16.80
2022-10-15T23:56:28.387Z,16.70
2022-10-15T23:58:58.704Z,16.60
